Time;durP1;ratioP1;P1;durP2;ratioP2;P2;SDS_P1;SDS_P2;PMS_P1;PMS_P2;Temp;Humidity;BMP_temperature;BMP_pressure;BME280_temperature;BME280_humidity;BME280_pressure;Samples;Min_cycle;Max_cycle;Signal;HPM_P1;HPM_P2
2022/09/26 00:01:59;;;;;;;;;;;15.30;60.30;;;;;;5001418;28;93199;-40
2022/09/26 00:04:26;;;;;;;;;;;15.30;60.40;;;;;;5002062;28;92216;-40
2022/09/26 00:06:52;;;;;;;;;;;15.30;60.40;;;;;;5001822;28;92649;-41
2022/09/26 00:09:18;;;;;;;;;;;15.30;60.30;;;;;;5001223;28;92319;-41
2022/09/26 00:11:44;;;;;;;;;;;15.30;60.30;;;;;;5001786;28;92103;-41
2022/09/26 00:14:15;;;;;;;;;;;15.30;60.40;;;;;;5001955;28;92422;-41
2022/09/26 00:16:40;;;;;;;;;;;15.30;60.40;;;;;;5003811;28;93267;-41
2022/09/26 00:19:06;;;;;;;;;;;15.30;60.30;;;;;;5001472;28;93261;-42
2022/09/26 00:21:32;;;;;;;;;;;15.20;60.40;;;;;;5001065;28;92977;-41
2022/09/26 00:23:59;;;;;;;;;;;15.20;60.40;;;;;;5001558;28;92137;-41
2022/09/26 00:26:25;;;;;;;;;;;15.20;60.40;;;;;;5001524;28;92443;-41
2022/09/26 00:28:51;;;;;;;;;;;15.20;60.50;;;;;;5001013;28;92926;-41
2022/09/26 00:31:18;;;;;;;;;;;15.20;60.50;;;;;;5001533;28;92190;-40
2022/09/26 00:33:44;;;;;;;;;;;15.20;60.50;;;;;;5001784;28;92369;-41
2022/09/26 00:36:09;;;;;;;;;;;15.20;60.50;;;;;;5000675;28;93079;-41
2022/09/26 00:38:35;;;;;;;;;;;15.20;60.50;;;;;;5004543;28;92164;-41
2022/09/26 00:41:01;;;;;;;;;;;15.20;60.50;;;;;;5000271;28;93285;-41
2022/09/26 00:43:27;;;;;;;;;;;15.20;60.50;;;;;;5001174;28;92100;-41
2022/09/26 00:45:53;;;;;;;;;;;15.20;60.50;;;;;;5001320;28;92443;-41
2022/09/26 00:48:19;;;;;;;;;;;15.20;60.50;;;;;;5000537;28;93025;-41
2022/09/26 00:50:45;;;;;;;;;;;15.20;60.60;;;;;;5001077;28;91990;-41
2022/09/26 00:53:15;;;;;;;;;;;15.20;60.50;;;;;;5001247;28;92480;-40
2022/09/26 00:55:43;;;;;;;;;;;15.10;60.50;;;;;;5000730;28;92993;-41
2022/09/26 00:58:10;;;;;;;;;;;15.10;60.60;;;;;;5001474;28;91359;-41
2022/09/26 01:00:37;;;;;;;;;;;15.10;60.60;;;;;;5003716;28;92323;-41
2022/09/26 01:03:02;;;;;;;;;;;15.10;60.60;;;;;;5001020;28;92095;-41
2022/09/26 01:05:30;;;;;;;;;;;15.10;60.60;;;;;;5000107;28;92939;-41
2022/09/26 01:07:56;;;;;;;;;;;15.10;60.70;;;;;;5000117;28;93545;-41
2022/09/26 01:10:21;;;;;;;;;;;15.10;60.70;;;;;;5000498;28;92205;-40
2022/09/26 01:12:47;;;;;;;;;;;15.10;60.80;;;;;;5000834;28;92371;-41
2022/09/26 01:15:12;;;;;;;;;;;15.10;61.30;;;;;;5000454;28;92255;-41
2022/09/26 01:17:40;;;;;;;;;;;15.10;60.70;;;;;;5000813;28;92249;-41
2022/09/26 01:20:11;;;;;;;;;;;15.10;60.70;;;;;;5000560;28;92680;-40
2022/09/26 01:22:37;;;;;;;;;;;15.10;60.70;;;;;;5003641;28;92484;-40
2022/09/26 01:25:15;;;;;;;;;;;15.10;60.70;;;;;;5000711;28;92065;-41
2022/09/26 01:27:55;;;;;;;;;;;15.10;60.80;;;;;;5000171;28;92291;-41
2022/09/26 01:30:25;;;;;;;;;;;15.00;60.70;;;;;;4999780;28;93088;-41
2022/09/26 01:32:56;;;;;;;;;;;15.00;60.80;;;;;;5000327;28;93393;-41
2022/09/26 01:35:40;;;;;;;;;;;15.00;60.80;;;;;;5000233;28;93184;-40
2022/09/26 01:38:21;;;;;;;;;;;15.00;60.80;;;;;;5000407;28;92151;-41
2022/09/26 01:40:49;;;;;;;;;;;15.00;60.80;;;;;;5000680;28;92534;-41
2022/09/26 01:43:22;;;;;;;;;;;15.00;60.80;;;;;;5002893;28;93177;-40
2022/09/26 01:45:51;;;;;;;;;;;15.00;60.80;;;;;;5000262;28;91999;-41
2022/09/26 01:48:23;;;;;;;;;;;15.00;60.80;;;;;;4999920;28;92240;-40
2022/09/26 01:50:52;;;;;;;;;;;15.00;60.90;;;;;;5000153;28;91912;-41
2022/09/26 01:53:23;;;;;;;;;;;15.00;60.90;;;;;;5000020;28;95413;-41
2022/09/26 01:55:58;;;;;;;;;;;15.00;60.80;;;;;;4998831;28;94131;-41
2022/09/26 01:58:28;;;;;;;;;;;15.00;60.80;;;;;;4999793;28;92155;-41
2022/09/26 02:00:57;;;;;;;;;;;15.00;60.80;;;;;;4999982;28;92622;-41
2022/09/26 02:03:26;;;;;;;;;;;15.00;60.80;;;;;;4999338;28;93126;-41
2022/09/26 02:05:59;;;;;;;;;;;15.00;61.00;;;;;;5002542;28;92072;-41
2022/09/26 02:08:40;;;;;;;;;;;15.00;61.00;;;;;;4998727;28;92384;-41
2022/09/26 02:11:11;;;;;;;;;;;15.00;60.90;;;;;;5000184;28;91851;-41
2022/09/26 02:13:57;;;;;;;;;;;15.00;60.90;;;;;;5000276;28;92441;-41
2022/09/26 02:16:28;;;;;;;;;;;15.00;61.00;;;;;;4998922;28;93105;-41
2022/09/26 02:18:58;;;;;;;;;;;15.00;60.90;;;;;;4999842;28;92156;-41
2022/09/26 02:21:24;;;;;;;;;;;14.90;60.90;;;;;;4999031;28;92942;-41
2022/09/26 02:23:51;;;;;;;;;;;15.00;61.00;;;;;;4999448;28;93205;-41
2022/09/26 02:26:17;;;;;;;;;;;15.00;61.10;;;;;;4999797;28;92117;-41
2022/09/26 02:28:43;;;;;;;;;;;14.90;61.00;;;;;;5002209;28;92045;-41
2022/09/26 02:31:10;;;;;;;;;;;14.90;60.90;;;;;;4999470;28;92602;-40
2022/09/26 02:33:36;;;;;;;;;;;15.00;61.00;;;;;;4999715;28;93244;-40
2022/09/26 02:36:04;;;;;;;;;;;14.90;61.00;;;;;;4998973;28;93001;-41
2022/09/26 02:38:30;;;;;;;;;;;14.90;61.00;;;;;;4999963;28;91397;-41
2022/09/26 02:41:00;;;;;;;;;;;14.90;61.10;;;;;;4999513;28;92021;-41
2022/09/26 02:43:46;;;;;;;;;;;14.90;61.10;;;;;;4999005;28;93258;-41
2022/09/26 02:46:14;;;;;;;;;;;14.90;61.10;;;;;;4998320;28;93918;-41
2022/09/26 02:48:58;;;;;;;;;;;14.90;61.10;;;;;;4999051;28;93469;-41
2022/09/26 02:51:24;;;;;;;;;;;14.90;61.10;;;;;;5001882;28;93120;-40
2022/09/26 02:54:07;;;;;;;;;;;14.90;61.10;;;;;;4999470;28;92460;-41
2022/09/26 02:57:02;;;;;;;;;;;14.90;61.10;;;;;;4998765;28;93167;-41
2022/09/26 02:59:44;;;;;;;;;;;14.90;61.20;;;;;;4993813;28;91970;-41
2022/09/26 03:02:10;;;;;;;;;;;14.90;61.10;;;;;;4999340;28;92396;-41
2022/09/26 03:04:55;;;;;;;;;;;14.90;61.20;;;;;;4999015;28;92226;-41
2022/09/26 03:07:26;;;;;;;;;;;14.90;61.20;;;;;;4999299;28;92091;-41
2022/09/26 03:09:51;;;;;;;;;;;14.90;61.20;;;;;;4998832;28;92329;-41
2022/09/26 03:12:17;;;;;;;;;;;14.90;61.30;;;;;;4997813;28;94051;-41
2022/09/26 03:14:44;;;;;;;;;;;14.80;61.30;;;;;;5002236;28;92135;-41
2022/09/26 03:17:10;;;;;;;;;;;14.80;61.20;;;;;;4998357;28;93315;-41
2022/09/26 03:19:35;;;;;;;;;;;14.80;61.40;;;;;;5001258;28;92090;-41
2022/09/26 03:22:01;;;;;;;;;;;14.90;61.40;;;;;;5002704;28;92486;-41
2022/09/26 03:24:27;;;;;;;;;;;14.80;61.50;;;;;;5002018;28;93067;-41
2022/09/26 03:26:54;;;;;;;;;;;14.80;61.40;;;;;;5002904;28;92017;-41
2022/09/26 03:29:19;;;;;;;;;;;14.80;61.40;;;;;;5002720;28;92521;-41
2022/09/26 03:31:45;;;;;;;;;;;14.80;61.40;;;;;;5001569;28;93024;-41
2022/09/26 03:34:11;;;;;;;;;;;14.80;61.40;;;;;;5002333;28;92056;-40
2022/09/26 03:36:38;;;;;;;;;;;14.80;61.40;;;;;;5004295;28;93124;-41
2022/09/26 03:39:04;;;;;;;;;;;14.80;61.40;;;;;;5002214;28;92095;-41
2022/09/26 03:41:29;;;;;;;;;;;14.80;61.60;;;;;;5002279;28;92671;-41
2022/09/26 03:43:55;;;;;;;;;;;14.80;61.60;;;;;;5001841;28;93083;-41
2022/09/26 03:46:21;;;;;;;;;;;14.80;61.60;;;;;;5002032;28;92155;-41
2022/09/26 03:48:48;;;;;;;;;;;14.80;61.80;;;;;;5001849;28;92321;-41
2022/09/26 03:51:13;;;;;;;;;;;14.80;61.50;;;;;;5001693;28;93064;-41
2022/09/26 03:53:40;;;;;;;;;;;14.80;61.50;;;;;;5002709;28;91385;-41
2022/09/26 03:56:07;;;;;;;;;;;14.80;61.60;;;;;;5004740;28;92739;-41
2022/09/26 03:58:33;;;;;;;;;;;14.80;61.60;;;;;;5001908;28;92051;-41
2022/09/26 04:01:08;;;;;;;;;;;14.80;61.70;;;;;;5001436;28;93079;-41
2022/09/26 04:03:35;;;;;;;;;;;14.80;61.70;;;;;;5001328;28;93125;-41
2022/09/26 04:06:01;;;;;;;;;;;14.80;61.80;;;;;;5001923;28;92024;-41
2022/09/26 04:08:26;;;;;;;;;;;14.80;61.90;;;;;;5001737;28;92364;-41
2022/09/26 04:10:52;;;;;;;;;;;14.80;61.80;;;;;;5001485;28;92279;-41
2022/09/26 04:13:18;;;;;;;;;;;14.80;61.80;;;;;;5001755;28;92099;-41
2022/09/26 04:15:43;;;;;;;;;;;14.70;61.90;;;;;;5001573;28;92426;-41
2022/09/26 04:18:09;;;;;;;;;;;14.80;61.90;;;;;;5004758;28;91830;-41
2022/09/26 04:20:34;;;;;;;;;;;14.80;61.90;;;;;;5001659;28;91935;-41
2022/09/26 04:23:00;;;;;;;;;;;14.80;62.00;;;;;;5001231;28;93144;-41
2022/09/26 04:25:25;;;;;;;;;;;14.70;61.80;;;;;;5001132;28;93106;-41
2022/09/26 04:27:51;;;;;;;;;;;14.80;61.80;;;;;;5001528;28;93152;-41
2022/09/26 04:30:16;;;;;;;;;;;14.80;61.90;;;;;;5000322;28;93427;-41
2022/09/26 04:32:42;;;;;;;;;;;14.70;61.90;;;;;;5001686;28;92119;-41
2022/09/26 04:35:07;;;;;;;;;;;14.70;62.00;;;;;;5001450;28;91937;-41
2022/09/26 04:37:35;;;;;;;;;;;14.80;61.90;;;;;;5000786;28;92979;-41
2022/09/26 04:40:01;;;;;;;;;;;14.70;61.90;;;;;;5004338;28;92188;-41
2022/09/26 04:42:27;;;;;;;;;;;14.70;62.00;;;;;;5001361;28;92849;-41
2022/09/26 04:44:52;;;;;;;;;;;14.70;61.80;;;;;;5001079;28;92229;-41
2022/09/26 04:47:18;;;;;;;;;;;14.70;61.80;;;;;;5001160;28;92163;-41
2022/09/26 04:49:43;;;;;;;;;;;14.70;61.80;;;;;;4999823;28;94852;-40
2022/09/26 04:52:11;;;;;;;;;;;14.70;61.80;;;;;;5001414;28;92131;-41
2022/09/26 04:54:37;;;;;;;;;;;14.70;61.90;;;;;;5000953;28;92469;-41
2022/09/26 04:57:04;;;;;;;;;;;14.80;61.80;;;;;;5000472;28;92357;-41
2022/09/26 04:59:30;;;;;;;;;;;14.70;61.80;;;;;;5001076;28;92046;-40
2022/09/26 05:01:56;;;;;;;;;;;14.70;61.90;;;;;;5003703;28;92575;-41
2022/09/26 05:04:21;;;;;;;;;;;14.70;61.80;;;;;;5000924;28;92176;-41
2022/09/26 05:06:47;;;;;;;;;;;14.70;62.00;;;;;;5001569;28;92476;-41
2022/09/26 05:09:12;;;;;;;;;;;14.70;61.90;;;;;;4999862;28;93064;-41
2022/09/26 05:11:38;;;;;;;;;;;14.70;61.90;;;;;;5000834;28;92116;-41
2022/09/26 05:14:03;;;;;;;;;;;14.70;61.80;;;;;;5000072;28;92896;-41
2022/09/26 05:16:29;;;;;;;;;;;14.70;61.80;;;;;;5000346;28;93097;-41
2022/09/26 05:18:55;;;;;;;;;;;14.70;61.90;;;;;;5000601;28;92133;-41
2022/09/26 05:21:21;;;;;;;;;;;14.70;61.90;;;;;;5000907;28;92594;-41
2022/09/26 05:26:40;;;;;;;;;;;14.70;61.90;;;;;;5000900;28;91739;-41
2022/09/26 05:29:06;;;;;;;;;;;14.70;61.90;;;;;;4999675;28;92227;-41
2022/09/26 05:31:35;;;;;;;;;;;14.70;62.00;;;;;;5001169;28;91310;-41
2022/09/26 05:34:05;;;;;;;;;;;14.70;62.00;;;;;;5000472;28;92129;-41
2022/09/26 05:36:30;;;;;;;;;;;14.70;62.20;;;;;;4999922;28;93084;-41
2022/09/26 05:38:56;;;;;;;;;;;14.70;62.00;;;;;;4999795;28;93217;-41
2022/09/26 05:41:21;;;;;;;;;;;14.70;62.10;;;;;;4999320;28;93844;-41
2022/09/26 05:43:47;;;;;;;;;;;14.70;62.10;;;;;;4999464;28;94518;-41
2022/09/26 05:46:13;;;;;;;;;;;14.70;62.00;;;;;;5003514;28;92523;-41
2022/09/26 05:48:39;;;;;;;;;;;14.70;62.10;;;;;;4999359;28;93365;-41
2022/09/26 05:51:08;;;;;;;;;;;14.70;62.00;;;;;;5000304;28;92208;-41
2022/09/26 05:53:34;;;;;;;;;;;14.70;62.00;;;;;;5000024;28;92397;-41
2022/09/26 05:55:59;;;;;;;;;;;14.70;62.10;;;;;;4999989;28;92479;-41
2022/09/26 05:58:31;;;;;;;;;;;14.70;62.10;;;;;;5000234;28;92439;-41
2022/09/26 06:01:03;;;;;;;;;;;14.70;62.10;;;;;;4999817;28;92292;-40
2022/09/26 06:03:33;;;;;;;;;;;14.70;62.10;;;;;;4999209;28;94142;-41
2022/09/26 06:06:06;;;;;;;;;;;14.70;62.00;;;;;;5002941;28;92328;-41
2022/09/26 06:08:32;;;;;;;;;;;14.70;61.90;;;;;;4998835;28;93042;-41
2022/09/26 06:11:12;;;;;;;;;;;14.80;62.10;;;;;;5000087;28;92495;-41
2022/09/26 06:13:39;;;;;;;;;;;14.70;62.20;;;;;;4999848;28;92495;-41
2022/09/26 06:16:06;;;;;;;;;;;14.80;62.20;;;;;;4999546;28;93410;-41
2022/09/26 06:18:32;;;;;;;;;;;14.70;62.20;;;;;;4999964;28;92094;-41
2022/09/26 06:21:04;;;;;;;;;;;14.70;62.20;;;;;;5000224;28;92472;-41
2022/09/26 06:23:30;;;;;;;;;;;14.70;62.20;;;;;;4999243;28;93495;-41
2022/09/26 06:25:57;;;;;;;;;;;14.70;62.00;;;;;;4999798;28;92193;-41
2022/09/26 06:28:23;;;;;;;;;;;14.80;62.20;;;;;;5001470;28;93043;-41
2022/09/26 06:30:49;;;;;;;;;;;14.80;62.10;;;;;;4999484;28;92091;-41
2022/09/26 06:33:14;;;;;;;;;;;14.80;62.20;;;;;;4999585;28;92745;-41
2022/09/26 06:35:40;;;;;;;;;;;14.80;62.20;;;;;;4998852;28;93303;-41
2022/09/26 06:38:06;;;;;;;;;;;14.80;62.00;;;;;;4999619;28;92105;-41
2022/09/26 06:40:32;;;;;;;;;;;14.80;61.90;;;;;;4999794;28;92352;-41
2022/09/26 06:42:58;;;;;;;;;;;14.80;62.00;;;;;;4998993;28;93234;-41
2022/09/26 06:45:25;;;;;;;;;;;14.80;61.90;;;;;;5000065;28;91581;-41
2022/09/26 06:47:51;;;;;;;;;;;14.80;61.90;;;;;;4999024;28;93379;-41
2022/09/26 06:50:17;;;;;;;;;;;14.80;61.80;;;;;;5001668;28;93245;-41
2022/09/26 06:52:42;;;;;;;;;;;14.80;62.10;;;;;;4998547;28;92904;-41
2022/09/26 06:55:08;;;;;;;;;;;14.80;62.10;;;;;;4998944;28;93007;-41
2022/09/26 06:57:41;;;;;;;;;;;14.80;62.10;;;;;;4999413;28;92029;-41
2022/09/26 07:00:08;;;;;;;;;;;14.80;62.00;;;;;;4999374;28;92483;-41
2022/09/26 07:02:33;;;;;;;;;;;14.80;62.00;;;;;;4998907;28;93080;-41
2022/09/26 07:05:01;;;;;;;;;;;14.80;62.00;;;;;;4999031;28;92134;-41
2022/09/26 07:07:27;;;;;;;;;;;14.80;62.10;;;;;;4999104;28;92590;-41
2022/09/26 07:09:52;;;;;;;;;;;14.80;62.10;;;;;;4998721;28;92480;-41
2022/09/26 07:12:18;;;;;;;;;;;14.90;62.00;;;;;;5002486;28;92166;-41
2022/09/26 07:14:43;;;;;;;;;;;14.90;62.10;;;;;;4998584;28;93126;-41
2022/09/26 07:17:12;;;;;;;;;;;14.90;62.10;;;;;;4998407;28;92908;-41
2022/09/26 07:19:38;;;;;;;;;;;14.90;62.10;;;;;;4998831;28;93528;-41
2022/09/26 07:22:05;;;;;;;;;;;14.90;62.10;;;;;;4998347;28;93010;-41
2022/09/26 07:24:30;;;;;;;;;;;14.90;62.10;;;;;;4999038;28;92659;-41
2022/09/26 07:26:56;;;;;;;;;;;14.90;62.10;;;;;;4998924;28;92222;-41
2022/09/26 07:29:21;;;;;;;;;;;14.90;62.10;;;;;;4998444;28;93411;-41
2022/09/26 07:31:47;;;;;;;;;;;14.90;62.10;;;;;;4998727;28;92136;-41
2022/09/26 07:34:12;;;;;;;;;;;14.90;62.20;;;;;;5001957;28;91418;-41
2022/09/26 07:36:39;;;;;;;;;;;14.90;62.10;;;;;;4999102;28;92179;-41
2022/09/26 07:39:05;;;;;;;;;;;14.90;62.10;;;;;;4998727;28;93921;-41
2022/09/26 07:41:30;;;;;;;;;;;14.90;62.20;;;;;;4997550;28;93959;-41
2022/09/26 07:43:56;;;;;;;;;;;14.90;62.10;;;;;;4998943;28;91985;-41
2022/09/26 07:51:53;;;;;;;;;;;14.90;62.30;;;;;;4998752;28;92029;-41
2022/09/26 07:54:18;;;;;;;;;;;14.90;62.10;;;;;;5000878;28;92029;-41
2022/09/26 07:56:44;;;;;;;;;;;14.90;62.10;;;;;;4998741;28;91999;-41
2022/09/26 07:59:09;;;;;;;;;;;15.00;62.10;;;;;;4999259;28;92445;-41
2022/09/26 08:01:36;;;;;;;;;;;14.90;62.10;;;;;;4997933;28;93133;-41
2022/09/26 08:04:02;;;;;;;;;;;14.90;62.10;;;;;;4998492;28;92200;-41
2022/09/26 08:06:30;;;;;;;;;;;14.90;62.00;;;;;;5001375;28;93310;-41
2022/09/26 08:08:57;;;;;;;;;;;15.00;62.10;;;;;;5000805;28;92939;-41
2022/09/26 08:11:23;;;;;;;;;;;15.00;62.30;;;;;;5001784;28;92158;-41
2022/09/26 08:13:49;;;;;;;;;;;14.90;62.20;;;;;;5001615;28;92228;-41
2022/09/26 08:16:24;;;;;;;;;;;15.00;62.20;;;;;;5004345;28;92173;-41
2022/09/26 08:18:50;;;;;;;;;;;15.00;62.40;;;;;;5001816;28;92393;-41
2022/09/26 08:21:15;;;;;;;;;;;15.00;62.20;;;;;;5001151;28;93099;-41
2022/09/26 08:23:42;;;;;;;;;;;15.00;62.50;;;;;;5002357;28;91346;-41
2022/09/26 08:26:08;;;;;;;;;;;15.00;62.40;;;;;;5001546;28;92008;-41
2022/09/26 08:28:33;;;;;;;;;;;15.10;62.40;;;;;;5000812;28;93228;-41
2022/09/26 08:31:03;;;;;;;;;;;15.10;62.30;;;;;;5000852;28;93030;-41
2022/09/26 08:33:33;;;;;;;;;;;15.10;62.40;;;;;;5001321;28;93369;-41
2022/09/26 08:36:05;;;;;;;;;;;15.10;62.40;;;;;;5000639;28;92184;-41
2022/09/26 08:38:31;;;;;;;;;;;15.10;62.60;;;;;;5004529;28;92129;-41
2022/09/26 08:41:15;;;;;;;;;;;15.10;62.60;;;;;;5000700;28;93141;-41
2022/09/26 08:43:50;;;;;;;;;;;15.10;62.70;;;;;;5001322;28;92094;-41
2022/09/26 08:46:36;;;;;;;;;;;15.10;62.50;;;;;;5001206;28;92704;-41
2022/09/26 08:49:14;;;;;;;;;;;15.20;62.60;;;;;;5001009;28;92362;-41
2022/09/26 08:51:42;;;;;;;;;;;15.10;62.60;;;;;;5001089;28;92311;-41
2022/09/26 08:54:20;;;;;;;;;;;15.20;62.60;;;;;;5000941;28;92413;-41
2022/09/26 08:56:48;;;;;;;;;;;15.20;62.50;;;;;;4999689;28;94076;-41
2022/09/26 08:59:28;;;;;;;;;;;15.10;62.70;;;;;;5001008;28;92050;-41
2022/09/26 09:01:55;;;;;;;;;;;15.20;62.70;;;;;;5003601;28;92899;-41
2022/09/26 09:04:37;;;;;;;;;;;15.20;62.70;;;;;;5000844;28;92108;-41
2022/09/26 09:07:06;;;;;;;;;;;15.20;63.00;;;;;;5001118;28;92719;-41
2022/09/26 09:09:31;;;;;;;;;;;15.20;62.70;;;;;;4999931;28;93345;-41
2022/09/26 09:12:00;;;;;;;;;;;15.20;62.70;;;;;;5001032;28;92344;-41
2022/09/26 09:14:39;;;;;;;;;;;15.20;63.10;;;;;;5001128;28;92284;-41
2022/09/26 09:17:19;;;;;;;;;;;15.20;62.90;;;;;;4999133;28;92992;-41
2022/09/26 09:20:03;;;;;;;;;;;15.20;62.90;;;;;;5000888;28;92320;-41
2022/09/26 09:22:39;;;;;;;;;;;15.30;62.90;;;;;;5000098;28;92829;-41
2022/09/26 09:25:11;;;;;;;;;;;15.30;62.90;;;;;;5002942;28;92865;-41
2022/09/26 09:27:39;;;;;;;;;;;15.30;62.80;;;;;;5000642;28;92063;-41
2022/09/26 09:30:19;;;;;;;;;;;15.30;63.10;;;;;;5000028;28;93223;-41
2022/09/26 09:32:47;;;;;;;;;;;15.40;63.00;;;;;;5000595;28;92086;-41
2022/09/26 09:35:17;;;;;;;;;;;15.30;62.90;;;;;;5000623;28;92315;-41
2022/09/26 09:37:46;;;;;;;;;;;15.30;63.00;;;;;;5000049;28;93394;-41
2022/09/26 09:40:18;;;;;;;;;;;15.40;63.00;;;;;;5000687;28;91346;-41
2022/09/26 09:42:50;;;;;;;;;;;15.40;63.20;;;;;;5000565;28;92039;-41
2022/09/26 09:45:21;;;;;;;;;;;15.40;63.10;;;;;;4999722;28;93302;-41
2022/09/26 09:47:47;;;;;;;;;;;15.40;63.10;;;;;;5002955;28;93175;-41
2022/09/26 09:50:39;;;;;;;;;;;15.40;63.10;;;;;;4999377;28;93300;-41
2022/09/26 09:53:05;;;;;;;;;;;15.50;63.00;;;;;;4998630;28;94709;-41
2022/09/26 09:55:33;;;;;;;;;;;15.50;62.90;;;;;;5000332;28;92281;-41
2022/09/26 09:58:37;;;;;;;;;;;15.50;63.10;;;;;;4999753;28;93127;-41
2022/09/26 10:01:14;;;;;;;;;;;15.50;62.90;;;;;;4977534;28;92173;-42
2022/09/26 10:03:54;;;;;;;;;;;15.60;63.10;;;;;;4978125;28;92637;-41
2022/09/26 10:06:21;;;;;;;;;;;15.50;63.10;;;;;;4991833;28;92412;-42
2022/09/26 10:08:46;;;;;;;;;;;15.60;63.00;;;;;;5002659;28;92090;-41
2022/09/26 10:11:22;;;;;;;;;;;15.60;63.30;;;;;;4999389;28;93038;-41
2022/09/26 10:13:48;;;;;;;;;;;15.60;63.20;;;;;;4999556;28;93007;-41
2022/09/26 10:16:13;;;;;;;;;;;15.60;63.20;;;;;;4999853;28;93383;-41
2022/09/26 10:19:03;;;;;;;;;;;15.60;63.30;;;;;;4999475;28;93055;-41
2022/09/26 10:21:33;;;;;;;;;;;15.60;63.40;;;;;;4999788;28;91933;-41
2022/09/26 10:24:00;;;;;;;;;;;15.60;63.60;;;;;;4999525;28;92386;-41
2022/09/26 10:26:34;;;;;;;;;;;15.60;63.50;;;;;;4999276;28;93027;-41
2022/09/26 10:29:07;;;;;;;;;;;15.60;63.50;;;;;;4997675;28;92042;-41
2022/09/26 10:31:42;;;;;;;;;;;15.60;63.40;;;;;;5002722;28;92532;-41
2022/09/26 10:34:20;;;;;;;;;;;15.70;63.40;;;;;;4999535;28;92013;-41
2022/09/26 10:36:46;;;;;;;;;;;15.70;63.50;;;;;;5000115;28;92410;-41
2022/09/26 10:42:00;;;;;;;;;;;15.80;63.50;;;;;;4999490;28;91904;-41
2022/09/26 10:44:32;;;;;;;;;;;15.80;63.50;;;;;;4999481;28;92382;-41
2022/09/26 10:46:59;;;;;;;;;;;15.80;63.40;;;;;;4998687;28;92967;-42
2022/09/26 10:49:30;;;;;;;;;;;15.90;63.50;;;;;;4998912;28;92139;-41
2022/09/26 10:52:07;;;;;;;;;;;15.90;63.50;;;;;;4999444;28;92353;-41
2022/09/26 10:54:42;;;;;;;;;;;15.90;63.60;;;;;;5001957;28;92700;-41
2022/09/26 10:57:16;;;;;;;;;;;15.90;63.60;;;;;;4999235;28;92591;-41
2022/09/26 10:59:42;;;;;;;;;;;15.90;63.50;;;;;;4998987;28;93008;-41
2022/09/26 11:02:12;;;;;;;;;;;16.00;63.50;;;;;;4999333;28;92251;-41
2022/09/26 11:07:33;;;;;;;;;;;16.00;63.60;;;;;;4998844;28;92126;-41
2022/09/26 11:10:01;;;;;;;;;;;16.00;63.60;;;;;;4998630;28;92347;-41
2022/09/26 11:12:27;;;;;;;;;;;16.10;63.60;;;;;;4999187;28;92345;-41
2022/09/26 11:14:57;;;;;;;;;;;16.10;63.50;;;;;;4998566;28;93056;-41
2022/09/26 11:17:49;;;;;;;;;;;16.10;63.70;;;;;;5002091;28;92035;-41
2022/09/26 11:20:33;;;;;;;;;;;16.10;63.80;;;;;;4997100;28;93265;-41
2022/09/26 11:23:17;;;;;;;;;;;16.10;63.80;;;;;;4999723;28;91240;-41
2022/09/26 11:25:43;;;;;;;;;;;16.10;63.90;;;;;;4998899;28;92030;-41
2022/09/26 11:28:15;;;;;;;;;;;16.20;63.80;;;;;;4996954;28;95864;-41
2022/09/26 11:30:46;;;;;;;;;;;16.20;63.80;;;;;;4998152;28;93098;-41
2022/09/26 11:33:12;;;;;;;;;;;16.20;63.80;;;;;;4999066;28;92654;-41
2022/09/26 11:35:42;;;;;;;;;;;16.20;63.80;;;;;;4998335;28;93195;-41
2022/09/26 11:38:25;;;;;;;;;;;16.30;63.90;;;;;;4998706;28;92496;-41
2022/09/26 11:40:59;;;;;;;;;;;16.30;63.80;;;;;;5004065;28;92630;-41
2022/09/26 11:43:47;;;;;;;;;;;16.30;63.80;;;;;;5002485;28;92150;-42
2022/09/26 11:46:39;;;;;;;;;;;16.30;63.90;;;;;;5000367;28;95246;-41
2022/09/26 11:49:24;;;;;;;;;;;16.30;63.80;;;;;;5000442;28;92720;-41
2022/09/26 11:51:59;;;;;;;;;;;16.40;63.90;;;;;;5002116;28;92201;-41
2022/09/26 11:54:32;;;;;;;;;;;16.40;63.90;;;;;;5002220;28;92446;-41
2022/09/26 11:57:10;;;;;;;;;;;16.40;64.00;;;;;;5000880;28;94291;-41
2022/09/26 11:59:38;;;;;;;;;;;16.40;64.00;;;;;;5002125;28;91995;-41
2022/09/26 12:02:22;;;;;;;;;;;16.50;64.00;;;;;;5001825;28;92491;-41
2022/09/26 12:04:59;;;;;;;;;;;16.50;63.90;;;;;;5004631;28;92834;-41
2022/09/26 12:07:42;;;;;;;;;;;16.50;63.90;;;;;;5002170;28;92537;-41
2022/09/26 12:10:24;;;;;;;;;;;16.50;63.80;;;;;;5000577;28;92848;-41
2022/09/26 12:13:00;;;;;;;;;;;16.50;63.90;;;;;;5001855;28;92465;-41
2022/09/26 12:15:28;;;;;;;;;;;16.50;63.90;;;;;;5002268;28;92446;-41
2022/09/26 12:17:58;;;;;;;;;;;16.60;63.90;;;;;;5001290;28;92987;-42
2022/09/26 12:20:23;;;;;;;;;;;16.60;64.00;;;;;;5001575;28;92117;-41
2022/09/26 12:22:52;;;;;;;;;;;16.60;63.90;;;;;;5000936;28;92839;-41
2022/09/26 12:25:26;;;;;;;;;;;16.60;63.90;;;;;;5004422;28;93059;-41
2022/09/26 12:27:58;;;;;;;;;;;16.70;63.90;;;;;;5001667;28;92608;-41
2022/09/26 12:30:25;;;;;;;;;;;16.70;64.00;;;;;;5000948;28;93015;-41
2022/09/26 12:33:09;;;;;;;;;;;16.70;64.20;;;;;;5001637;28;92168;-41
2022/09/26 12:35:38;;;;;;;;;;;16.70;64.10;;;;;;5001409;28;92509;-42
2022/09/26 12:38:11;;;;;;;;;;;16.70;64.10;;;;;;5001085;28;92973;-41
2022/09/26 12:40:52;;;;;;;;;;;16.70;64.20;;;;;;5001886;28;91691;-41
2022/09/26 12:43:26;;;;;;;;;;;16.70;64.20;;;;;;5001543;28;92208;-41
2022/09/26 12:45:57;;;;;;;;;;;16.80;64.10;;;;;;5000414;28;93567;-41
2022/09/26 12:48:28;;;;;;;;;;;16.70;64.20;;;;;;5004021;28;92947;-41
2022/09/26 12:51:05;;;;;;;;;;;16.80;64.30;;;;;;5000062;28;92710;-41
2022/09/26 12:53:31;;;;;;;;;;;16.80;64.20;;;;;;5001135;28;92126;-41
2022/09/26 12:56:04;;;;;;;;;;;16.80;64.30;;;;;;5001311;28;92377;-41
2022/09/26 12:58:35;;;;;;;;;;;16.80;64.20;;;;;;5000539;28;93070;-41
2022/09/26 13:01:10;;;;;;;;;;;16.80;64.30;;;;;;5001110;28;92208;-41
2022/09/26 13:03:55;;;;;;;;;;;16.90;64.20;;;;;;5001002;28;92376;-41
2022/09/26 13:06:31;;;;;;;;;;;16.90;64.30;;;;;;5001182;28;91404;-41
2022/09/26 13:08:59;;;;;;;;;;;16.90;64.20;;;;;;5000488;28;92088;-41
2022/09/26 13:11:52;;;;;;;;;;;16.90;64.20;;;;;;5003584;28;92834;-41
2022/09/26 13:14:26;;;;;;;;;;;16.90;64.20;;;;;;4990774;28;93211;-41
2022/09/26 13:16:54;;;;;;;;;;;17.00;64.20;;;;;;5000613;28;93391;-41
2022/09/26 13:19:34;;;;;;;;;;;17.00;64.30;;;;;;4999917;28;93015;-41
2022/09/26 13:22:02;;;;;;;;;;;17.00;64.30;;;;;;5000988;28;92138;-41
2022/09/26 13:24:39;;;;;;;;;;;16.90;64.30;;;;;;5000872;28;92416;-41
2022/09/26 13:27:40;;;;;;;;;;;17.00;64.20;;;;;;5000303;28;92966;-41
2022/09/26 13:30:15;;;;;;;;;;;17.00;64.20;;;;;;4977925;28;92272;-41
2022/09/26 13:32:56;;;;;;;;;;;17.00;64.20;;;;;;4997479;28;92376;-41
2022/09/26 13:35:23;;;;;;;;;;;17.10;64.20;;;;;;5002987;28;93192;-41
2022/09/26 13:38:04;;;;;;;;;;;17.10;64.30;;;;;;5000494;28;92640;-41
2022/09/26 13:40:35;;;;;;;;;;;17.10;64.20;;;;;;4999618;28;94025;-41
2022/09/26 13:43:08;;;;;;;;;;;17.10;64.20;;;;;;5000624;28;92102;-41
2022/09/26 13:46:03;;;;;;;;;;;17.10;64.20;;;;;;5000532;28;92337;-41
2022/09/26 13:48:49;;;;;;;;;;;17.10;64.20;;;;;;4979853;28;92970;-41
2022/09/26 13:51:19;;;;;;;;;;;17.10;64.10;;;;;;5000339;28;92029;-41
2022/09/26 13:53:49;;;;;;;;;;;17.20;64.20;;;;;;5000428;28;92411;-41
2022/09/26 13:56:33;;;;;;;;;;;17.20;64.20;;;;;;4999759;28;92953;-41
2022/09/26 13:59:11;;;;;;;;;;;17.20;64.20;;;;;;5003629;28;91267;-41
2022/09/26 14:01:38;;;;;;;;;;;17.20;64.10;;;;;;4999137;28;92756;-41
2022/09/26 14:04:16;;;;;;;;;;;17.20;64.10;;;;;;4999634;28;92077;-41
2022/09/26 14:07:01;;;;;;;;;;;17.20;64.20;;;;;;4999346;28;92834;-41
2022/09/26 14:09:38;;;;;;;;;;;17.20;64.10;;;;;;4999053;28;92398;-41
2022/09/26 14:12:19;;;;;;;;;;;17.20;64.10;;;;;;5000081;28;92113;-41
2022/09/26 14:14:49;;;;;;;;;;;17.20;64.20;;;;;;5000072;28;92319;-41
2022/09/26 14:17:34;;;;;;;;;;;17.30;64.20;;;;;;4999634;28;92990;-41
2022/09/26 14:20:02;;;;;;;;;;;17.30;64.10;;;;;;4999686;28;91979;-41
2022/09/26 14:22:33;;;;;;;;;;;17.30;64.10;;;;;;5002277;28;92210;-41
2022/09/26 14:25:00;;;;;;;;;;;17.30;64.20;;;;;;5000100;28;91379;-42
2022/09/26 14:27:40;;;;;;;;;;;17.30;64.10;;;;;;4999806;28;91981;-42
2022/09/26 14:30:29;;;;;;;;;;;17.30;64.10;;;;;;4999398;28;92976;-41
2022/09/26 14:33:08;;;;;;;;;;;17.30;64.10;;;;;;4995767;28;93182;-41
2022/09/26 14:35:34;;;;;;;;;;;17.40;64.20;;;;;;4999459;28;93535;-41
2022/09/26 14:38:07;;;;;;;;;;;17.40;64.10;;;;;;4998869;28;93083;-41
2022/09/26 14:40:33;;;;;;;;;;;17.40;64.10;;;;;;4999703;28;91874;-41
2022/09/26 14:43:08;;;;;;;;;;;17.40;64.20;;;;;;5001926;28;92186;-41
2022/09/26 14:45:34;;;;;;;;;;;17.40;64.10;;;;;;4999594;28;92253;-41
2022/09/26 14:48:02;;;;;;;;;;;17.40;64.10;;;;;;4999700;28;92363;-41
2022/09/26 14:50:33;;;;;;;;;;;17.40;64.20;;;;;;4999045;28;92215;-41